sensor_id;sensor_type;location;lat;lon;timestamp;P1;P2;P0
74430;PMS7003;62863;52.062;23.764;2023-03-01T00:01:57;40.3;36.5;21.5
74430;PMS7003;62863;52.062;23.764;2023-03-01T00:06:15;36.3;32;20
74430;PMS7003;62863;52.062;23.764;2023-03-01T00:11:59;38;29;19.5
74430;PMS7003;62863;52.062;23.764;2023-03-01T00:16:49;34.8;31;20.5
74430;PMS7003;62863;52.062;23.764;2023-03-01T00:21:59;39;33.7;22.3
74430;PMS7003;62863;52.062;23.764;2023-03-01T00:26:15;37.3;31.3;20
74430;PMS7003;62863;52.062;23.764;2023-03-01T00:31:16;45.8;41;26.3
74430;PMS7003;62863;52.062;23.764;2023-03-01T00:36:57;40;34;22.2
74430;PMS7003;62863;52.062;23.764;2023-03-01T00:41:49;37.2;34.2;22.2
74430;PMS7003;62863;52.062;23.764;2023-03-01T00:46:59;45.6;36.6;22.8
74430;PMS7003;62863;52.062;23.764;2023-03-01T00:51:37;47;40;24.4
74430;PMS7003;62863;52.062;23.764;2023-03-01T00:56:45;49.8;41;23.4
74430;PMS7003;62863;52.062;23.764;2023-03-01T01:01:57;41.2;35.8;23.4
74430;PMS7003;62863;52.062;23.764;2023-03-01T01:06:49;39;33;22
74430;PMS7003;62863;52.062;23.764;2023-03-01T01:11:30;34.2;30.8;21.2
74430;PMS7003;62863;52.062;23.764;2023-03-01T01:16:16;39.2;33.2;20.8
74430;PMS7003;62863;52.062;23.764;2023-03-01T01:21:23;31.8;28.8;18.3
74430;PMS7003;62863;52.062;23.764;2023-03-01T01:26:35;38.2;30.8;20.2
74430;PMS7003;62863;52.062;23.764;2023-03-01T01:31:57;27.7;27.7;17.7
74430;PMS7003;62863;52.062;23.764;2023-03-01T01:36:49;26;23.8;17
74430;PMS7003;62863;52.062;23.764;2023-03-01T01:41:35;37.5;29;17
74430;PMS7003;62863;52.062;23.764;2023-03-01T01:46:17;30.3;24.3;17.3
74430;PMS7003;62863;52.062;23.764;2023-03-01T01:51:36;34;27.5;16
74430;PMS7003;62863;52.062;23.764;2023-03-01T01:57:00;30;25.5;17.5
74430;PMS7003;62863;52.062;23.764;2023-03-01T02:01:23;32;25.5;16.5
74430;PMS7003;62863;52.062;23.764;2023-03-01T02:06:38;35.5;31.3;20
74430;PMS7003;62863;52.062;23.764;2023-03-01T02:11:23;59;48.2;28.8
74430;PMS7003;62863;52.062;23.764;2023-03-01T02:16:37;49.6;41.6;27.2
74430;PMS7003;62863;52.062;23.764;2023-03-01T02:22:00;41.3;38;23.5
74430;PMS7003;62863;52.062;23.764;2023-03-01T02:26:50;34.8;29.6;18.8
74430;PMS7003;62863;52.062;23.764;2023-03-01T02:31:16;42;35.5;23.3
74430;PMS7003;62863;52.062;23.764;2023-03-01T02:36:22;39.3;37;24.3
74430;PMS7003;62863;52.062;23.764;2023-03-01T02:41:46;34;29.8;19.8
74430;PMS7003;62863;52.062;23.764;2023-03-01T02:46:50;32;26.5;18.8
74430;PMS7003;62863;52.062;23.764;2023-03-01T02:51:56;33;29.3;17.3
74430;PMS7003;62863;52.062;23.764;2023-03-01T02:56:37;28.8;25.3;16.3
74430;PMS7003;62863;52.062;23.764;2023-03-01T03:01:23;36.8;27;17.3
74430;PMS7003;62863;52.062;23.764;2023-03-01T03:06:29;33;26.8;17
74430;PMS7003;62863;52.062;23.764;2023-03-01T03:11:59;31.3;24;16.3
74430;PMS7003;62863;52.062;23.764;2023-03-01T03:16:39;32;26;16
74430;PMS7003;62863;52.062;23.764;2023-03-01T03:21:59;33.3;28;17.5
74430;PMS7003;62863;52.062;23.764;2023-03-01T03:26:15;31;27.5;19
74430;PMS7003;62863;52.062;23.764;2023-03-01T03:31:23;38.2;33.4;21.2
74430;PMS7003;62863;52.062;23.764;2023-03-01T03:36:59;38;32.4;21.8
74430;PMS7003;62863;52.062;23.764;2023-03-01T03:41:49;39.5;34.5;22
74430;PMS7003;62863;52.062;23.764;2023-03-01T03:46:37;46;36.3;22.3
74430;PMS7003;62863;52.062;23.764;2023-03-01T03:51:27;42.7;37.3;22.3
74430;PMS7003;62863;52.062;23.764;2023-03-01T03:56:35;33.7;26.7;17.3
74430;PMS7003;62863;52.062;23.764;2023-03-01T04:01:57;41.3;31.5;22.5
74430;PMS7003;62863;52.062;23.764;2023-03-01T04:06:47;37.3;31.7;21.7
74430;PMS7003;62863;52.062;23.764;2023-03-01T04:11:37;37;32;21.3
74430;PMS7003;62863;52.062;23.764;2023-03-01T04:16:16;32.5;29.5;19
74430;PMS7003;62863;52.062;23.764;2023-03-01T04:21:37;34;28.2;19.8
74430;PMS7003;62863;52.062;23.764;2023-03-01T04:26:59;37;30.4;18.6
74430;PMS7003;62863;52.062;23.764;2023-03-01T04:31:49;33.5;28;18
74430;PMS7003;62863;52.062;23.764;2023-03-01T04:36:33;31.5;27.8;19
74430;PMS7003;62863;52.062;23.764;2023-03-01T04:41:49;28;25;19
74430;PMS7003;62863;52.062;23.764;2023-03-01T04:46:35;37;32.3;21.3
74430;PMS7003;62863;52.062;23.764;2023-03-01T04:51:59;45;38.8;24.3
74430;PMS7003;62863;52.062;23.764;2023-03-01T04:56:47;35;31;22
74430;PMS7003;62863;52.062;23.764;2023-03-01T05:01:21;25.7;23;17
74430;PMS7003;62863;52.062;23.764;2023-03-01T05:06:35;26;23.3;16.5
74430;PMS7003;62863;52.062;23.764;2023-03-01T05:11:15;33;27.3;18
74430;PMS7003;62863;52.062;23.764;2023-03-01T05:16:57;38;33.5;23.5
74430;PMS7003;62863;52.062;23.764;2023-03-01T05:21:33;33;30.5;23
74430;PMS7003;62863;52.062;23.764;2023-03-01T05:26:55;31.5;29.5;17.5
74430;PMS7003;62863;52.062;23.764;2023-03-01T05:31:27;35.4;28.8;17.8
74430;PMS7003;62863;52.062;23.764;2023-03-01T05:36:33;31.3;29.7;20.7
74430;PMS7003;62863;52.062;23.764;2023-03-01T05:41:59;42.3;37;24.7
74430;PMS7003;62863;52.062;23.764;2023-03-01T05:46:49;33.4;30.8;20.6
74430;PMS7003;62863;52.062;23.764;2023-03-01T05:51:57;43.6;37.6;24.6
74430;PMS7003;62863;52.062;23.764;2023-03-01T05:56:25;40.8;37;24.5
74430;PMS7003;62863;52.062;23.764;2023-03-01T06:01:35;41.5;37.3;22.8
74430;PMS7003;62863;52.062;23.764;2023-03-01T06:06:57;42.3;34;21
74430;PMS7003;62863;52.062;23.764;2023-03-01T06:11:49;47.3;40;25
74430;PMS7003;62863;52.062;23.764;2023-03-01T06:16:59;54.6;44.6;29
74430;PMS7003;62863;52.062;23.764;2023-03-01T06:21:15;53.6;44.8;29
74430;PMS7003;62863;52.062;23.764;2023-03-01T06:26:35;53.7;45;29
74430;PMS7003;62863;52.062;23.764;2023-03-01T06:31:47;43.8;38;22.5
74430;PMS7003;62863;52.062;23.764;2023-03-01T06:36:49;55.3;46.3;31
74430;PMS7003;62863;52.062;23.764;2023-03-01T06:41:57;51.3;43;27.3
74430;PMS7003;62863;52.062;23.764;2023-03-01T06:46:15;48.3;42.3;28
74430;PMS7003;62863;52.062;23.764;2023-03-01T06:51:35;47.3;38.8;27
74430;PMS7003;62863;52.062;23.764;2023-03-01T06:56:57;43.7;37.7;22
74430;PMS7003;62863;52.062;23.764;2023-03-01T07:01:49;45.6;38.4;25.8
74430;PMS7003;62863;52.062;23.764;2023-03-01T07:07:01;42.3;33.3;21
74430;PMS7003;62863;52.062;23.764;2023-03-01T07:11:15;32;27.8;19.4
74430;PMS7003;62863;52.062;23.764;2023-03-01T07:16:29;34.2;29.6;19.2
74430;PMS7003;62863;52.062;23.764;2023-03-01T07:22:03;39.8;33;22.3
74430;PMS7003;62863;52.062;23.764;2023-03-01T07:26:53;40.8;34.4;24
74430;PMS7003;62863;52.062;23.764;2023-03-01T07:32:04;58.4;45.2;29.6
74430;PMS7003;62863;52.062;23.764;2023-03-01T07:36:15;35.2;32;20.4
74430;PMS7003;62863;52.062;23.764;2023-03-01T07:41:15;38.5;31;20.3
74430;PMS7003;62863;52.062;23.764;2023-03-01T07:47:03;38;34;22
74430;PMS7003;62863;52.062;23.764;2023-03-01T07:51:53;46;38.4;26
74430;PMS7003;62863;52.062;23.764;2023-03-01T07:57:03;44.4;37;23.6
74430;PMS7003;62863;52.062;23.764;2023-03-01T08:01:27;62.3;49;31.3
74430;PMS7003;62863;52.062;23.764;2023-03-01T08:06:33;35.8;31;20.8
74430;PMS7003;62863;52.062;23.764;2023-03-01T08:12:01;38.8;31.4;21
74430;PMS7003;62863;52.062;23.764;2023-03-01T08:16:51;31.3;29.5;18.5
74430;PMS7003;62863;52.062;23.764;2023-03-01T08:22:02;30.4;26.4;16.2
74430;PMS7003;62863;52.062;23.764;2023-03-01T08:26:25;35.8;31.3;21.3
74430;PMS7003;62863;52.062;23.764;2023-03-01T08:31:24;31.8;28.8;19.5
74430;PMS7003;62863;52.062;23.764;2023-03-01T08:37:03;22.5;19;12.5
74430;PMS7003;62863;52.062;23.764;2023-03-01T08:41:51;23.6;20.8;14.4
74430;PMS7003;62863;52.062;23.764;2023-03-01T08:47:03;21.4;20;13.6
74430;PMS7003;62863;52.062;23.764;2023-03-01T08:51:27;26.2;23;15
74430;PMS7003;62863;52.062;23.764;2023-03-01T08:56:21;20.8;19;12.6
74430;PMS7003;62863;52.062;23.764;2023-03-01T09:02:01;16;15;10.3
74430;PMS7003;62863;52.062;23.764;2023-03-01T09:06:51;18.4;16;11.6
74430;PMS7003;62863;52.062;23.764;2023-03-01T09:12:02;17.3;15.3;12
74430;PMS7003;62863;52.062;23.764;2023-03-01T09:16:16;19.4;17.4;12.6
74430;PMS7003;62863;52.062;23.764;2023-03-01T09:21:49;21.8;17.5;12.5
74430;PMS7003;62863;52.062;23.764;2023-03-01T09:26:16;20.8;17.8;12
74430;PMS7003;62863;52.062;23.764;2023-03-01T09:31:37;20.8;17.4;11.4
74430;PMS7003;62863;52.062;23.764;2023-03-01T09:36:47;23.8;19.5;13.3
74430;PMS7003;62863;52.062;23.764;2023-03-01T09:41:44;25.5;20.3;14.5
74430;PMS7003;62863;52.062;23.764;2023-03-01T09:47:01;22;18.6;13.8
74430;PMS7003;62863;52.062;23.764;2023-03-01T09:51:26;21.2;15.8;12.6
74430;PMS7003;62863;52.062;23.764;2023-03-01T09:56:16;18;16.8;11.3
74430;PMS7003;62863;52.062;23.764;2023-03-01T10:01:49;22.8;19;13.4
74430;PMS7003;62863;52.062;23.764;2023-03-01T10:06:23;23;20.2;14.4
74430;PMS7003;62863;52.062;23.764;2023-03-01T10:11:57;23.6;20.4;14.8
74430;PMS7003;62863;52.062;23.764;2023-03-01T10:16:27;28.4;23;16.4
74430;PMS7003;62863;52.062;23.764;2023-03-01T10:21:39;27.2;22.6;16
74430;PMS7003;62863;52.062;23.764;2023-03-01T10:26:48;25.5;20.5;14
74430;PMS7003;62863;52.062;23.764;2023-03-01T10:31:17;24;21.2;15.2
74430;PMS7003;62863;52.062;23.764;2023-03-01T10:37:09;23.8;21;14.2
74430;PMS7003;62863;52.062;23.764;2023-03-01T10:41:15;45.2;36;24.2
74430;PMS7003;62863;52.062;23.764;2023-03-01T10:46:37;55.6;45.6;28.6
74430;PMS7003;62863;52.062;23.764;2023-03-01T10:51:48;34.2;28.6;19
74430;PMS7003;62863;52.062;23.764;2023-03-01T10:56:15;68.5;53;32.8
74430;PMS7003;62863;52.062;23.764;2023-03-01T11:01:45;29.6;22.8;14.4
74430;PMS7003;62863;52.062;23.764;2023-03-01T11:06:20;20.2;17.8;12
74430;PMS7003;62863;52.062;23.764;2023-03-01T11:11:18;21.3;18.3;12.8
74430;PMS7003;62863;52.062;23.764;2023-03-01T11:16:57;24.2;21.2;15
74430;PMS7003;62863;52.062;23.764;2023-03-01T11:21:15;26.3;22.5;14.8
74430;PMS7003;62863;52.062;23.764;2023-03-01T11:27:02;21.2;19.4;13.6
74430;PMS7003;62863;52.062;23.764;2023-03-01T11:31:27;27.8;24.2;16.8
74430;PMS7003;62863;52.062;23.764;2023-03-01T11:36:36;22.2;18;12
74430;PMS7003;62863;52.062;23.764;2023-03-01T11:41:50;25.8;22.8;15.8
74430;PMS7003;62863;52.062;23.764;2023-03-01T11:46:44;22.8;17;11.6
74430;PMS7003;62863;52.062;23.764;2023-03-01T11:52:00;32.6;28.4;18.8
74430;PMS7003;62863;52.062;23.764;2023-03-01T11:56:41;29.6;26.4;18.4
74430;PMS7003;62863;52.062;23.764;2023-03-01T12:01:28;22.4;18;12.6
74430;PMS7003;62863;52.062;23.764;2023-03-01T12:06:50;34.6;29.4;20
74430;PMS7003;62863;52.062;23.764;2023-03-01T12:11:25;35;31.8;20.8
74430;PMS7003;62863;52.062;23.764;2023-03-01T12:16:38;26;22.8;16.2
74430;PMS7003;62863;52.062;23.764;2023-03-01T12:22:07;32.4;27;18.8
74430;PMS7003;62863;52.062;23.764;2023-03-01T12:26:26;36.2;30.2;21.4
74430;PMS7003;62863;52.062;23.764;2023-03-01T12:31:56;35.8;30.5;20.8
74430;PMS7003;62863;52.062;23.764;2023-03-01T12:36:20;50.5;40.5;26.3
74430;PMS7003;62863;52.062;23.764;2023-03-01T12:42:01;71.4;55;35
74430;PMS7003;62863;52.062;23.764;2023-03-01T12:46:26;53.4;41.8;28.2
74430;PMS7003;62863;52.062;23.764;2023-03-01T12:51:34;31;25;17.5
74430;PMS7003;62863;52.062;23.764;2023-03-01T12:56:47;42.2;35.6;23.6
74430;PMS7003;62863;52.062;23.764;2023-03-01T13:01:31;41.5;32.8;21.8
74430;PMS7003;62863;52.062;23.764;2023-03-01T13:07:05;45.7;39;23.7
74430;PMS7003;62863;52.062;23.764;2023-03-01T13:11:16;35.8;29.8;21.6
74430;PMS7003;62863;52.062;23.764;2023-03-01T13:16:39;36.3;31.3;22.3
74430;PMS7003;62863;52.062;23.764;2023-03-01T13:22:24;24.3;21.3;15.8
74430;PMS7003;62863;52.062;23.764;2023-03-01T13:26:44;31.3;29;19.3
74430;PMS7003;62863;52.062;23.764;2023-03-01T13:48:50;25;22;17
74430;PMS7003;62863;52.062;23.764;2023-03-01T14:09:03;28;25.5;19
74430;PMS7003;62863;52.062;23.764;2023-03-01T14:13:52;30;28.3;19.5
74430;PMS7003;62863;52.062;23.764;2023-03-01T14:19:15;27;24.3;18
74430;PMS7003;62863;52.062;23.764;2023-03-01T14:23:28;25.5;22.5;17.3
74430;PMS7003;62863;52.062;23.764;2023-03-01T14:28:36;33;29;19
74430;PMS7003;62863;52.062;23.764;2023-03-01T14:33:58;34.7;29.7;20.3
74430;PMS7003;62863;52.062;23.764;2023-03-01T14:38:31;39.5;33.8;22.8
74430;PMS7003;62863;52.062;23.764;2023-03-01T14:44:14;38.3;29.3;19.3
74430;PMS7003;62863;52.062;23.764;2023-03-01T14:49:01;29.5;27;21
74430;PMS7003;62863;52.062;23.764;2023-03-01T14:53:36;24.8;21;15
74430;PMS7003;62863;52.062;23.764;2023-03-01T14:59:01;19.5;18.5;14
74430;PMS7003;62863;52.062;23.764;2023-03-01T15:03:48;23.7;21;15.3
74430;PMS7003;62863;52.062;23.764;2023-03-01T15:09:13;30.8;26.2;18.6
74430;PMS7003;62863;52.062;23.764;2023-03-01T15:14:00;27.6;24.4;15.8
74430;PMS7003;62863;52.062;23.764;2023-03-01T15:18:26;29.2;27.6;19.4
74430;PMS7003;62863;52.062;23.764;2023-03-01T15:24:02;38.5;34.8;23
74430;PMS7003;62863;52.062;23.764;2023-03-01T15:28:40;41.6;32.4;21.4
74430;PMS7003;62863;52.062;23.764;2023-03-01T15:34:21;36.2;29.6;21.6
74430;PMS7003;62863;52.062;23.764;2023-03-01T15:39:00;40;36.7;25.7
74430;PMS7003;62863;52.062;23.764;2023-03-01T15:43:43;52.2;42.4;28.2
74430;PMS7003;62863;52.062;23.764;2023-03-01T15:49:01;48.3;40.3;26.8
74430;PMS7003;62863;52.062;23.764;2023-03-01T15:53:38;44.8;38.6;26.2
74430;PMS7003;62863;52.062;23.764;2023-03-01T15:59:10;43.3;36;23.7
74430;PMS7003;62863;52.062;23.764;2023-03-01T16:03:58;60.3;48;32.3
74430;PMS7003;62863;52.062;23.764;2023-03-01T16:08:38;74.4;56.4;34.8
74430;PMS7003;62863;52.062;23.764;2023-03-01T16:14:00;63.3;50.5;32
74430;PMS7003;62863;52.062;23.764;2023-03-01T16:18:50;53;43.2;28.6
74430;PMS7003;62863;52.062;23.764;2023-03-01T16:24:12;58.2;47.8;30.6
74430;PMS7003;62863;52.062;23.764;2023-03-01T16:29:00;65.5;48;30.5
74430;PMS7003;62863;52.062;23.764;2023-03-01T16:33:48;43.8;39.3;26.8
74430;PMS7003;62863;52.062;23.764;2023-03-01T16:39:00;32.3;28;19.5
74430;PMS7003;62863;52.062;23.764;2023-03-01T16:43:36;38.4;33.4;21.8
74430;PMS7003;62863;52.062;23.764;2023-03-01T16:49:12;43.8;35.5;22.5
74430;PMS7003;62863;52.062;23.764;2023-03-01T16:54:00;27.3;22.3;14.7
74430;PMS7003;62863;52.062;23.764;2023-03-01T16:58:36;31.3;26;17.5
74430;PMS7003;62863;52.062;23.764;2023-03-01T17:04:00;37.3;33.7;23.7
74430;PMS7003;62863;52.062;23.764;2023-03-01T17:09:00;44.7;38;26.7
74430;PMS7003;62863;52.062;23.764;2023-03-01T17:13:58;60.7;48;30.7
74430;PMS7003;62863;52.062;23.764;2023-03-01T17:18:50;70.8;55.8;33.6
74430;PMS7003;62863;52.062;23.764;2023-03-01T17:23:40;69;55;37.5
74430;PMS7003;62863;52.062;23.764;2023-03-01T17:29:02;72;56.3;34
74430;PMS7003;62863;52.062;23.764;2023-03-01T17:34:12;63;48.8;31.5
74430;PMS7003;62863;52.062;23.764;2023-03-01T17:38:58;62.5;47;31
74430;PMS7003;62863;52.062;23.764;2023-03-01T17:43:50;52.7;44.7;29.7
74430;PMS7003;62863;52.062;23.764;2023-03-01T17:48:26;55.7;47.3;30.3
74430;PMS7003;62863;52.062;23.764;2023-03-01T17:54:12;43;35;21
74430;PMS7003;62863;52.062;23.764;2023-03-01T17:58:38;54.5;44.5;28
74430;PMS7003;62863;52.062;23.764;2023-03-01T18:04:00;50.3;42.5;27.5
74430;PMS7003;62863;52.062;23.764;2023-03-01T18:08:52;42;39.3;26.7
74430;PMS7003;62863;52.062;23.764;2023-03-01T18:13:38;44.6;40.2;27
74430;PMS7003;62863;52.062;23.764;2023-03-01T18:19:14;50.3;39;24.7
74430;PMS7003;62863;52.062;23.764;2023-03-01T18:23:50;51;38;25
74430;PMS7003;62863;52.062;23.764;2023-03-01T18:29:00;51;42;27
74430;PMS7003;62863;52.062;23.764;2023-03-01T18:33:26;49;41;26
74430;PMS7003;62863;52.062;23.764;2023-03-01T18:38:40;51.7;43.3;27.7
74430;PMS7003;62863;52.062;23.764;2023-03-01T18:44:14;58;45;29
74430;PMS7003;62863;52.062;23.764;2023-03-01T18:49:11;39;29.5;17.5
74430;PMS7003;62863;52.062;23.764;2023-03-01T18:54:00;41;37;24.5
74430;PMS7003;62863;52.062;23.764;2023-03-01T18:58:52;56;46;30
74430;PMS7003;62863;52.062;23.764;2023-03-01T19:03:51;51.5;41.8;25.8
74430;PMS7003;62863;52.062;23.764;2023-03-01T19:09:12;64;49;29
74430;PMS7003;62863;52.062;23.764;2023-03-01T19:13:52;62;44;29
74430;PMS7003;62863;52.062;23.764;2023-03-01T19:19:00;45.7;41.3;26
74430;PMS7003;62863;52.062;23.764;2023-03-01T19:23:52;43.3;36.3;23
74430;PMS7003;62863;52.062;23.764;2023-03-01T19:28:38;46;43;26.5
74430;PMS7003;62863;52.062;23.764;2023-03-01T19:34:12;45;40;27.7
74430;PMS7003;62863;52.062;23.764;2023-03-01T19:38:36;49.5;42;28.5
74430;PMS7003;62863;52.062;23.764;2023-03-01T19:43:58;48.3;42;26.3
74430;PMS7003;62863;52.062;23.764;2023-03-01T19:48:48;45;35;22
74430;PMS7003;62863;52.062;23.764;2023-03-01T19:53:36;38.3;34.3;23.3
74430;PMS7003;62863;52.062;23.764;2023-03-01T19:59:12;44;35.7;25.7
74430;PMS7003;62863;52.062;23.764;2023-03-01T20:03:38;51.3;44;28
74430;PMS7003;62863;52.062;23.764;2023-03-01T20:08:56;47.5;39.3;26.3
74430;PMS7003;62863;52.062;23.764;2023-03-01T20:13:50;54.3;46;29.8
74430;PMS7003;62863;52.062;23.764;2023-03-01T20:18:26;36.3;34.3;23.3
74430;PMS7003;62863;52.062;23.764;2023-03-01T20:24:12;50;41;28
74430;PMS7003;62863;52.062;23.764;2023-03-01T20:28:52;58;42;27
74430;PMS7003;62863;52.062;23.764;2023-03-01T20:33:38;41.5;35;22
74430;PMS7003;62863;52.062;23.764;2023-03-01T20:38:26;43.3;37.7;24.3
74430;PMS7003;62863;52.062;23.764;2023-03-01T20:43:26;36.5;32;20
74430;PMS7003;62863;52.062;23.764;2023-03-01T20:49:12;47.3;40.3;25
74430;PMS7003;62863;52.062;23.764;2023-03-01T20:53:50;43.8;36.8;25.5
74430;PMS7003;62863;52.062;23.764;2023-03-01T20:59:00;47.3;40.7;28.3
74430;PMS7003;62863;52.062;23.764;2023-03-01T21:04:04;41.3;34.8;21.8
74430;PMS7003;62863;52.062;23.764;2023-03-01T21:08:36;44.3;38.8;25
74430;PMS7003;62863;52.062;23.764;2023-03-01T21:13:46;40;35.7;24
74430;PMS7003;62863;52.062;23.764;2023-03-01T21:18:40;42;36.5;24
74430;PMS7003;62863;52.062;23.764;2023-03-01T21:24:14;50.4;43.8;29
74430;PMS7003;62863;52.062;23.764;2023-03-01T21:29:04;50;43.3;28
74430;PMS7003;62863;52.062;23.764;2023-03-01T21:33:38;48;41.7;25.7
74430;PMS7003;62863;52.062;23.764;2023-03-01T21:38:27;43;39.5;23
74430;PMS7003;62863;52.062;23.764;2023-03-01T21:43:38;45.7;36.3;24.7
74430;PMS7003;62863;52.062;23.764;2023-03-01T21:48:28;54.5;44.5;26.5
74430;PMS7003;62863;52.062;23.764;2023-03-01T21:54:02;43.5;35.5;21.8
74430;PMS7003;62863;52.062;23.764;2023-03-01T21:58:38;47.2;36.4;24.4
74430;PMS7003;62863;52.062;23.764;2023-03-01T22:03:48;59;47.3;30
74430;PMS7003;62863;52.062;23.764;2023-03-01T22:08:38;48.3;40;27.7
74430;PMS7003;62863;52.062;23.764;2023-03-01T22:14:12;53.3;44.5;28
74430;PMS7003;62863;52.062;23.764;2023-03-01T22:19:03;52.8;43;28.5
74430;PMS7003;62863;52.062;23.764;2023-03-01T22:23:26;63;50.5;32.5
74430;PMS7003;62863;52.062;23.764;2023-03-01T22:28:46;69.7;54.7;36
74430;PMS7003;62863;52.062;23.764;2023-03-01T22:33:26;65.3;52.7;34
74430;PMS7003;62863;52.062;23.764;2023-03-01T22:39:10;60;48;32.5
74430;PMS7003;62863;52.062;23.764;2023-03-01T22:44:00;57.5;49;31.5
74430;PMS7003;62863;52.062;23.764;2023-03-01T22:48:38;56;45.5;30
74430;PMS7003;62863;52.062;23.764;2023-03-01T22:53:34;58.5;49;31.5
74430;PMS7003;62863;52.062;23.764;2023-03-01T22:58:36;54.7;43.7;30.3
74430;PMS7003;62863;52.062;23.764;2023-03-01T23:04:12;58.5;47;29
74430;PMS7003;62863;52.062;23.764;2023-03-01T23:09:02;53.5;44;31
74430;PMS7003;62863;52.062;23.764;2023-03-01T23:13:46;61.3;49.7;30
74430;PMS7003;62863;52.062;23.764;2023-03-01T23:18:46;63.3;53;31.7
74430;PMS7003;62863;52.062;23.764;2023-03-01T23:23:26;70;52;31
74430;PMS7003;62863;52.062;23.764;2023-03-01T23:29:12;67;52;31
74430;PMS7003;62863;52.062;23.764;2023-03-01T23:33:40;54.5;46;30.5
74430;PMS7003;62863;52.062;23.764;2023-03-01T23:38:46;49.3;43;28.3
74430;PMS7003;62863;52.062;23.764;2023-03-01T23:43:34;46.7;39.7;28.7
74430;PMS7003;62863;52.062;23.764;2023-03-01T23:48:36;46;41;29
74430;PMS7003;62863;52.062;23.764;2023-03-01T23:54:13;54.5;43;28.5
74430;PMS7003;62863;52.062;23.764;2023-03-01T23:59:03;56.5;46.8;30
